createdAt,value
2018-03-06T00:01:47.689Z,86.62
2018-03-06T00:04:15.301Z,86.96
2018-03-06T00:06:43.124Z,86.41
2018-03-06T00:09:10.944Z,86.20
2018-03-06T00:11:38.573Z,86.43
2018-03-06T00:14:06.382Z,86.94
2018-03-06T00:16:33.954Z,86.96
2018-03-06T00:19:01.555Z,86.55
2018-03-06T00:21:29.143Z,86.04
2018-03-06T00:23:56.792Z,86.11
2018-03-06T00:26:24.388Z,86.03
2018-03-06T00:28:52.149Z,86.15
2018-03-06T00:31:19.909Z,86.06
2018-03-06T00:33:47.504Z,86.21
2018-03-06T00:36:15.341Z,86.36
2018-03-06T00:38:42.929Z,86.46
2018-03-06T00:41:10.514Z,86.16
2018-03-06T00:43:38.294Z,84.72
2018-03-06T00:46:05.920Z,84.26
2018-03-06T00:48:33.558Z,83.97
2018-03-06T00:51:01.320Z,84.53
2018-03-06T00:53:29.057Z,84.82
2018-03-06T00:55:56.653Z,85.99
2018-03-06T00:58:24.245Z,86.67
2018-03-06T01:00:51.906Z,87.44
2018-03-06T01:03:19.493Z,87.76
2018-03-06T01:05:47.259Z,88.03
2018-03-06T01:08:14.858Z,88.27
2018-03-06T01:10:42.458Z,88.34
2018-03-06T01:13:10.088Z,88.42
2018-03-06T01:15:37.706Z,88.14
2018-03-06T01:18:05.297Z,87.94
2018-03-06T01:20:33.062Z,86.83
2018-03-06T01:23:00.881Z,86.65
2018-03-06T01:25:28.520Z,86.72
2018-03-06T01:27:56.114Z,86.85
2018-03-06T01:30:23.939Z,86.76
2018-03-06T01:32:51.531Z,86.91
2018-03-06T01:35:19.234Z,87.21
2018-03-06T01:37:47.090Z,87.38
2018-03-06T01:40:14.704Z,87.27
2018-03-06T01:42:42.286Z,87.00
2018-03-06T01:45:09.880Z,86.91
2018-03-06T01:47:37.472Z,86.52
2018-03-06T01:50:05.133Z,86.59
2018-03-06T01:52:32.733Z,86.75
2018-03-06T01:55:00.322Z,86.81
2018-03-06T01:57:27.953Z,86.94
2018-03-06T01:59:55.543Z,87.39
2018-03-06T02:02:23.202Z,87.32
2018-03-06T02:04:50.850Z,87.20
2018-03-06T02:07:18.495Z,86.50
2018-03-06T02:09:46.089Z,86.45
2018-03-06T02:12:13.845Z,85.96
2018-03-06T02:14:41.667Z,85.91
2018-03-06T02:17:09.360Z,85.91
2018-03-06T02:19:37.175Z,85.83
2018-03-06T02:22:04.894Z,86.11
2018-03-06T02:24:32.473Z,86.29
2018-03-06T02:27:00.107Z,86.45
2018-03-06T02:29:27.694Z,86.64
2018-03-06T02:31:55.299Z,86.69
2018-03-06T02:34:22.877Z,86.76
2018-03-06T02:36:50.720Z,86.60
2018-03-06T02:39:18.378Z,86.68
2018-03-06T02:41:46.156Z,86.28
2018-03-06T02:44:13.748Z,86.39
2018-03-06T02:46:41.343Z,86.64
2018-03-06T02:49:09.074Z,86.87
2018-03-06T02:51:36.768Z,86.94
2018-03-06T02:54:04.380Z,86.49
2018-03-06T02:56:31.965Z,86.71
2018-03-06T02:58:59.782Z,86.29
2018-03-06T03:01:27.367Z,85.69
2018-03-06T03:03:55.026Z,86.05
2018-03-06T03:06:22.836Z,85.38
2018-03-06T03:08:50.657Z,85.62
2018-03-06T03:11:18.477Z,85.40
2018-03-06T03:13:46.058Z,85.45
2018-03-06T03:16:13.706Z,85.43
2018-03-06T03:18:41.294Z,85.10
2018-03-06T03:21:08.876Z,85.01
2018-03-06T03:23:36.475Z,85.42
2018-03-06T03:26:04.061Z,84.90
2018-03-06T03:28:31.783Z,84.46
2018-03-06T03:30:59.518Z,84.06
2018-03-06T03:33:27.339Z,84.29
2018-03-06T03:35:55.132Z,84.79
2018-03-06T03:38:22.715Z,84.53
2018-03-06T03:40:50.380Z,84.96
2018-03-06T03:43:17.965Z,85.22
2018-03-06T03:45:45.531Z,84.80
2018-03-06T03:48:13.342Z,84.76
2018-03-06T03:50:40.941Z,85.13
2018-03-06T03:53:08.610Z,85.30
2018-03-06T03:55:36.195Z,85.52
2018-03-06T03:58:03.766Z,85.29
2018-03-06T04:00:31.373Z,85.43
2018-03-06T04:02:59.134Z,85.61
2018-03-06T04:05:26.783Z,85.76
2018-03-06T04:07:54.585Z,86.06
2018-03-06T04:10:22.406Z,86.21
2018-03-06T04:12:50.222Z,86.08
2018-03-06T04:15:17.854Z,86.14
2018-03-06T04:17:45.506Z,86.50
2018-03-06T04:20:13.100Z,86.82
2018-03-06T04:22:40.864Z,87.27
2018-03-06T04:25:08.814Z,87.86
2018-03-06T04:27:36.410Z,87.94
2018-03-06T04:30:04.349Z,87.74
2018-03-06T04:32:31.949Z,87.77
2018-03-06T04:34:59.787Z,87.72
2018-03-06T04:37:27.558Z,87.61
2018-03-06T04:39:55.226Z,87.21
2018-03-06T04:42:22.880Z,87.33
2018-03-06T04:44:50.473Z,87.17
2018-03-06T04:47:18.071Z,86.89
2018-03-06T04:49:45.674Z,87.16
2018-03-06T04:52:13.512Z,87.17
2018-03-06T04:54:41.331Z,87.05
2018-03-06T04:57:08.945Z,87.35
2018-03-06T04:59:36.767Z,87.52
2018-03-06T05:02:04.354Z,87.91
2018-03-06T05:04:31.941Z,88.22
2018-03-06T05:06:59.569Z,88.31
2018-03-06T05:09:27.153Z,88.11
2018-03-06T05:11:54.939Z,87.75
2018-03-06T05:14:22.559Z,86.89
2018-03-06T05:16:50.392Z,86.95
2018-03-06T05:19:18.034Z,87.36
2018-03-06T05:21:45.679Z,88.01
2018-03-06T05:24:13.222Z,87.72
2018-03-06T05:26:40.839Z,87.31
2018-03-06T05:29:08.438Z,86.98
2018-03-06T05:31:36.301Z,87.07
2018-03-06T05:34:04.118Z,87.08
2018-03-06T05:36:31.723Z,87.73
2018-03-06T05:38:59.316Z,87.93
2018-03-06T05:41:26.915Z,87.97
2018-03-06T05:43:54.560Z,87.88
2018-03-06T05:46:22.376Z,87.27
2018-03-06T05:48:49.907Z,86.39
2018-03-06T05:51:17.506Z,86.08
2018-03-06T05:53:45.076Z,85.57
2018-03-06T05:56:12.834Z,85.55
2018-03-06T05:58:40.430Z,85.73
2018-03-06T06:01:08.009Z,86.13
2018-03-06T06:03:35.690Z,85.98
2018-03-06T06:06:03.270Z,86.32
2018-03-06T06:08:30.865Z,86.45
2018-03-06T06:10:58.577Z,86.66
2018-03-06T06:13:26.449Z,86.47
2018-03-06T06:15:54.055Z,87.30
2018-03-06T06:18:21.618Z,87.42
2018-03-06T06:20:49.200Z,87.08
2018-03-06T06:23:16.834Z,86.94
2018-03-06T06:25:44.402Z,87.15
2018-03-06T06:28:11.990Z,86.65
2018-03-06T06:30:39.832Z,86.40
2018-03-06T06:33:07.418Z,86.18
2018-03-06T06:35:34.998Z,85.51
2018-03-06T06:38:02.640Z,85.08
2018-03-06T06:40:30.205Z,85.23
2018-03-06T06:42:57.769Z,85.77
2018-03-06T06:45:25.394Z,85.84
2018-03-06T06:47:52.954Z,84.99
2018-03-06T06:50:20.562Z,85.45
2018-03-06T06:52:48.350Z,85.08
2018-03-06T06:55:15.914Z,85.06
2018-03-06T06:57:43.727Z,85.11
2018-03-06T07:00:11.354Z,85.35
2018-03-06T07:02:39.140Z,84.45
2018-03-06T07:05:06.702Z,85.11
2018-03-06T07:07:34.333Z,84.84
2018-03-06T07:10:01.900Z,85.08
2018-03-06T07:12:29.470Z,85.10
2018-03-06T07:14:57.251Z,84.55
2018-03-06T07:17:24.816Z,85.14
2018-03-06T07:19:52.384Z,85.17
2018-03-06T07:22:20.016Z,84.90
2018-03-06T07:24:47.575Z,84.56
2018-03-06T07:27:15.143Z,84.19
2018-03-06T07:29:43.003Z,84.06
2018-03-06T07:32:10.562Z,83.99
2018-03-06T07:34:38.121Z,83.87
2018-03-06T07:37:05.763Z,83.37
2018-03-06T07:39:33.322Z,82.47
2018-03-06T07:42:01.047Z,82.29
2018-03-06T07:44:28.672Z,82.50
2018-03-06T07:46:56.268Z,81.68
2018-03-06T07:49:23.834Z,82.23
2018-03-06T07:51:51.458Z,81.10
2018-03-06T07:54:19.024Z,81.35
2018-03-06T07:56:46.588Z,82.52
2018-03-06T07:59:14.215Z,83.30
2018-03-06T08:01:41.956Z,82.59
2018-03-06T08:04:09.671Z,83.82
2018-03-06T08:06:37.290Z,84.79
2018-03-06T08:09:04.915Z,85.70
2018-03-06T08:11:32.662Z,85.79
2018-03-06T08:14:00.296Z,85.55
2018-03-06T08:16:28.098Z,85.54
2018-03-06T08:18:55.657Z,85.01
2018-03-06T08:21:23.278Z,84.34
2018-03-06T08:23:50.848Z,83.75
2018-03-06T08:26:18.668Z,83.35
2018-03-06T08:28:46.488Z,82.11
2018-03-06T08:31:14.206Z,81.52
2018-03-06T08:33:41.766Z,81.60
2018-03-06T08:36:09.375Z,82.29
2018-03-06T08:38:36.938Z,82.07
2018-03-06T08:41:04.505Z,82.11
2018-03-06T08:43:32.081Z,81.51
2018-03-06T08:45:59.641Z,80.93
2018-03-06T08:48:27.260Z,79.36
2018-03-06T08:50:54.858Z,79.49
2018-03-06T08:53:22.665Z,79.42
2018-03-06T08:55:50.225Z,80.26
2018-03-06T08:58:17.977Z,81.06
2018-03-06T09:00:45.819Z,81.78
2018-03-06T09:03:13.538Z,81.97
2018-03-06T09:05:41.149Z,81.99
2018-03-06T09:08:08.734Z,81.98
2018-03-06T09:10:36.330Z,82.31
2018-03-06T09:13:03.947Z,81.62
2018-03-06T09:15:31.690Z,82.39
2018-03-06T09:17:59.245Z,82.19
2018-03-06T09:20:26.806Z,82.04
2018-03-06T09:22:54.362Z,81.99
2018-03-06T09:25:22.198Z,81.94
2018-03-06T09:27:49.916Z,80.55
2018-03-06T09:30:17.613Z,80.04
2018-03-06T09:32:45.190Z,79.58
2018-03-06T09:35:12.746Z,78.81
2018-03-06T09:37:40.588Z,77.73
2018-03-06T09:40:08.168Z,77.69
2018-03-06T09:42:35.722Z,77.89
2018-03-06T09:45:03.308Z,77.11
2018-03-06T09:47:30.862Z,76.47
2018-03-06T09:49:58.678Z,76.15
2018-03-06T09:52:26.248Z,75.31
2018-03-06T09:54:53.820Z,75.18
2018-03-06T09:57:21.390Z,73.37
2018-03-06T09:59:49.149Z,73.05
2018-03-06T10:02:16.770Z,71.29
2018-03-06T10:04:44.334Z,68.65
2018-03-06T10:07:12.101Z,67.51
2018-03-06T10:09:39.710Z,67.21
2018-03-06T10:12:07.270Z,67.59
2018-03-06T10:14:35.156Z,68.54
2018-03-06T10:17:02.972Z,69.73
2018-03-06T10:19:30.569Z,69.21
2018-03-06T10:21:58.133Z,70.52
2018-03-06T10:24:25.675Z,71.28
2018-03-06T10:26:53.290Z,70.03
2018-03-06T10:29:20.954Z,68.59
2018-03-06T10:31:48.515Z,67.93
2018-03-06T10:34:16.110Z,66.17
2018-03-06T10:36:43.916Z,64.50
2018-03-06T10:39:11.735Z,61.56
2018-03-06T10:41:39.294Z,57.73
2018-03-06T10:44:06.849Z,55.61
2018-03-06T10:46:34.480Z,55.41
2018-03-06T10:49:02.056Z,56.07
2018-03-06T10:51:29.924Z,57.23
2018-03-06T10:53:57.616Z,59.58
2018-03-06T10:56:25.173Z,59.30
2018-03-06T10:58:52.769Z,59.73
2018-03-06T11:01:25.345Z,59.99
2018-03-06T11:03:53.134Z,58.09
2018-03-06T11:06:21.852Z,56.30
2018-03-06T11:08:49.476Z,55.17
2018-03-06T11:11:17.069Z,53.35
2018-03-06T11:13:44.634Z,52.86
2018-03-06T11:16:12.338Z,56.26
2018-03-06T11:18:39.908Z,57.60
2018-03-06T11:21:07.469Z,57.54
2018-03-06T11:23:35.279Z,56.44
2018-03-06T11:26:02.841Z,53.60
2018-03-06T11:28:30.462Z,51.59
2018-03-06T11:30:58.232Z,52.22
2018-03-06T11:33:25.799Z,51.92
2018-03-06T11:35:53.671Z,48.83
2018-03-06T11:38:21.229Z,48.58
2018-03-06T11:40:48.790Z,46.12
2018-03-06T11:43:16.622Z,45.04
2018-03-06T11:45:44.185Z,44.76
2018-03-06T11:48:11.958Z,46.46
2018-03-06T11:50:39.526Z,47.03
2018-03-06T11:53:07.098Z,46.11
2018-03-06T11:55:34.722Z,45.67
2018-03-06T11:58:02.422Z,46.36
2018-03-06T12:00:29.989Z,46.80
2018-03-06T12:02:57.657Z,45.89
2018-03-06T12:05:25.218Z,45.67
2018-03-06T12:07:52.827Z,47.60
2018-03-06T12:10:20.390Z,48.93
2018-03-06T12:12:47.970Z,50.46
2018-03-06T12:15:15.561Z,50.73
2018-03-06T12:17:43.162Z,52.61
2018-03-06T12:20:10.794Z,53.11
2018-03-06T12:22:38.607Z,55.60
2018-03-06T12:25:06.210Z,55.29
2018-03-06T12:27:33.782Z,55.61
2018-03-06T12:30:01.355Z,56.77
2018-03-06T12:32:28.981Z,57.21
2018-03-06T12:34:56.710Z,56.92
2018-03-06T12:37:24.282Z,56.69
2018-03-06T12:39:52.153Z,56.83
2018-03-06T12:42:19.740Z,57.29
2018-03-06T12:44:47.358Z,57.04
2018-03-06T12:47:15.186Z,56.65
2018-03-06T12:49:42.897Z,56.78
2018-03-06T12:52:10.639Z,56.21
2018-03-06T12:54:38.215Z,51.20
2018-03-06T12:57:05.843Z,48.46
2018-03-06T12:59:33.492Z,47.35
2018-03-06T13:02:01.296Z,46.66
2018-03-06T13:04:28.910Z,47.42
2018-03-06T13:06:56.482Z,48.01
2018-03-06T13:09:24.109Z,47.55
2018-03-06T13:11:51.865Z,49.09
2018-03-06T13:14:19.494Z,50.52
2018-03-06T13:16:47.082Z,49.63
2018-03-06T13:19:14.650Z,49.64
2018-03-06T13:21:42.437Z,47.33
2018-03-06T13:24:10.046Z,45.95
2018-03-06T13:26:37.610Z,47.10
2018-03-06T13:29:05.286Z,46.40
2018-03-06T13:31:33.009Z,45.77
2018-03-06T13:34:00.655Z,44.15
2018-03-06T13:36:28.446Z,43.46
2018-03-06T13:38:56.057Z,41.31
2018-03-06T13:41:23.881Z,42.10
2018-03-06T13:43:51.700Z,43.89
2018-03-06T13:46:19.519Z,41.70
2018-03-06T13:48:47.085Z,42.20
2018-03-06T13:51:14.654Z,42.50
2018-03-06T13:53:42.221Z,42.67
2018-03-06T13:56:09.831Z,43.79
2018-03-06T13:58:37.446Z,43.64
2018-03-06T14:01:05.022Z,41.81
2018-03-06T14:03:32.586Z,42.46
2018-03-06T14:06:00.162Z,42.96
2018-03-06T14:08:27.770Z,44.28
2018-03-06T14:10:55.482Z,46.67
2018-03-06T14:13:23.215Z,47.77
2018-03-06T14:15:51.136Z,49.93
2018-03-06T14:18:18.745Z,54.32
2018-03-06T14:20:46.471Z,56.30
2018-03-06T14:23:14.109Z,56.91
2018-03-06T14:25:41.656Z,56.91
2018-03-06T14:28:09.408Z,58.32
2018-03-06T14:30:37.244Z,59.16
2018-03-06T14:33:05.061Z,59.46
2018-03-06T14:35:32.830Z,59.92
2018-03-06T14:38:00.395Z,61.08
2018-03-06T14:40:28.088Z,61.99
2018-03-06T14:42:55.654Z,63.71
2018-03-06T14:45:23.213Z,65.01
2018-03-06T14:47:51.068Z,67.02
2018-03-06T14:50:18.886Z,67.75
2018-03-06T14:52:46.460Z,67.87
2018-03-06T14:55:14.224Z,68.28
2018-03-06T14:57:41.780Z,69.06
2018-03-06T15:00:09.448Z,69.70
2018-03-06T15:02:36.991Z,69.93
2018-03-06T15:05:04.793Z,69.66
2018-03-06T15:07:32.495Z,69.69
2018-03-06T15:10:00.230Z,69.66
2018-03-06T15:12:27.873Z,70.10
2018-03-06T15:14:55.667Z,70.65
2018-03-06T15:17:23.484Z,69.48
2018-03-06T15:19:51.059Z,68.19
2018-03-06T15:22:18.820Z,66.60
2018-03-06T15:24:46.453Z,66.31
2018-03-06T15:27:14.028Z,66.88
2018-03-06T15:29:41.617Z,68.42
2018-03-06T15:32:09.299Z,68.73
2018-03-06T15:34:37.110Z,71.04
2018-03-06T15:37:04.928Z,71.35
2018-03-06T15:39:32.497Z,72.50
2018-03-06T15:42:00.068Z,72.89
2018-03-06T15:44:27.659Z,74.25
2018-03-06T15:46:55.399Z,75.42
2018-03-06T15:49:22.999Z,76.31
2018-03-06T15:51:50.557Z,76.99
2018-03-06T15:54:18.354Z,76.97
2018-03-06T15:56:46.092Z,76.88
2018-03-06T15:59:13.657Z,77.93
2018-03-06T16:01:41.301Z,78.18
2018-03-06T16:04:09.126Z,77.99
2018-03-06T16:06:36.859Z,78.39
2018-03-06T16:09:04.552Z,79.09
2018-03-06T16:11:32.281Z,79.53
2018-03-06T16:14:00.099Z,79.81
2018-03-06T16:16:27.917Z,79.93
2018-03-06T16:18:55.486Z,79.74
2018-03-06T16:21:23.140Z,80.18
2018-03-06T16:23:50.872Z,80.40
2018-03-06T16:26:18.558Z,79.99
2018-03-06T16:28:46.118Z,81.36
2018-03-06T16:31:13.925Z,81.04
2018-03-06T16:33:41.744Z,80.23
2018-03-06T16:36:09.317Z,80.10
2018-03-06T16:38:36.941Z,81.67
2018-03-06T16:41:04.514Z,82.50
2018-03-06T16:43:32.096Z,83.31
2018-03-06T16:45:59.674Z,82.42
2018-03-06T16:48:27.242Z,81.97
2018-03-06T16:50:54.877Z,82.26
2018-03-06T16:53:22.687Z,82.37
2018-03-06T16:55:50.505Z,83.07
2018-03-06T16:58:18.108Z,83.17
2018-03-06T17:00:45.820Z,83.75
2018-03-06T17:03:13.459Z,83.33
2018-03-06T17:05:41.028Z,83.40
2018-03-06T17:08:08.750Z,82.92
2018-03-06T17:10:36.513Z,83.31
2018-03-06T17:13:04.086Z,83.97
2018-03-06T17:15:31.722Z,84.17
2018-03-06T17:17:59.282Z,84.47
2018-03-06T17:20:26.842Z,84.54
2018-03-06T17:22:54.428Z,84.96
2018-03-06T17:25:21.996Z,84.62
2018-03-06T17:27:49.638Z,84.35
2018-03-06T17:30:17.457Z,83.74
2018-03-06T17:32:45.022Z,82.85
2018-03-06T17:35:12.595Z,83.10
2018-03-06T17:37:40.157Z,83.52
2018-03-06T17:40:07.780Z,83.57
2018-03-06T17:42:35.544Z,83.79
2018-03-06T17:45:03.122Z,83.43
2018-03-06T17:47:30.821Z,83.66
2018-03-06T17:49:58.498Z,83.64
2018-03-06T17:52:26.221Z,83.55
2018-03-06T17:54:54.937Z,83.57
2018-03-06T17:57:22.506Z,83.91
2018-03-06T17:59:50.121Z,84.02
2018-03-06T18:02:17.692Z,83.11
2018-03-06T18:04:45.510Z,81.43
2018-03-06T18:07:13.331Z,81.90
2018-03-06T18:09:40.902Z,82.23
2018-03-06T18:12:08.664Z,82.67
2018-03-06T18:14:36.281Z,82.97
2018-03-06T18:17:04.091Z,82.86
2018-03-06T18:19:31.909Z,82.48
2018-03-06T18:21:59.540Z,82.77
2018-03-06T18:24:27.353Z,82.62
2018-03-06T18:26:55.174Z,82.44
2018-03-06T18:29:22.982Z,82.21
2018-03-06T18:31:50.595Z,82.53
2018-03-06T18:34:18.175Z,82.63
2018-03-06T18:36:45.897Z,83.53
2018-03-06T18:39:13.420Z,83.28
2018-03-06T18:41:41.162Z,83.23
2018-03-06T18:44:08.783Z,83.18
2018-03-06T18:46:36.335Z,83.29
2018-03-06T18:49:04.121Z,83.08
2018-03-06T18:51:31.690Z,83.32
2018-03-06T18:53:59.265Z,83.12
2018-03-06T18:56:26.819Z,83.50
2018-03-06T18:58:54.439Z,83.36
2018-03-06T19:04:35.618Z,83.48
2018-03-06T19:07:08.337Z,83.53
2018-03-06T19:09:35.960Z,83.65
2018-03-06T19:12:03.658Z,84.03
2018-03-06T19:14:31.233Z,84.03
2018-03-06T19:16:58.864Z,83.73
2018-03-06T19:19:26.421Z,83.54
2018-03-06T19:21:53.986Z,83.50
2018-03-06T19:24:21.964Z,83.81
2018-03-06T19:26:49.511Z,83.47
2018-03-06T19:29:17.065Z,83.44
2018-03-06T19:31:44.682Z,83.31
2018-03-06T19:34:12.435Z,82.98
2018-03-06T19:36:40.252Z,83.44
2018-03-06T19:39:07.963Z,83.62
2018-03-06T19:41:35.791Z,83.80
2018-03-06T19:44:03.610Z,84.07
2018-03-06T19:46:31.427Z,84.05
2018-03-06T19:48:58.993Z,83.91
2018-03-06T19:51:26.763Z,83.63
2018-03-06T19:53:54.583Z,83.93
2018-03-06T19:56:22.186Z,83.36
2018-03-06T19:58:49.809Z,83.26
2018-03-06T20:01:17.735Z,83.10
2018-03-06T20:03:45.294Z,83.28
2018-03-06T20:06:12.858Z,82.63
2018-03-06T20:08:40.890Z,82.72
2018-03-06T20:11:08.446Z,82.86
2018-03-06T20:13:36.120Z,83.54
2018-03-06T20:16:04.145Z,83.50
2018-03-06T20:18:31.723Z,83.89
2018-03-06T20:20:59.481Z,84.15
2018-03-06T20:23:27.400Z,84.22
2018-03-06T20:26:00.035Z,84.35
2018-03-06T20:28:27.785Z,84.18
2018-03-06T20:31:01.193Z,83.83
2018-03-06T20:33:29.110Z,84.06
2018-03-06T20:35:56.928Z,84.31
2018-03-06T20:38:30.196Z,84.01
2018-03-06T20:40:58.011Z,83.97
2018-03-06T20:43:25.573Z,83.70
2018-03-06T20:45:58.858Z,83.81
2018-03-06T20:48:26.438Z,83.44
2018-03-06T20:50:53.997Z,83.64
2018-03-06T20:53:27.238Z,83.90
2018-03-06T20:55:55.032Z,83.58
2018-03-06T20:58:22.598Z,83.79
2018-03-06T21:00:50.368Z,84.10
2018-03-06T21:03:17.929Z,84.25
2018-03-06T21:05:45.704Z,84.40
2018-03-06T21:08:13.286Z,84.78
2018-03-06T21:10:40.854Z,85.11
2018-03-06T21:13:08.419Z,85.46
2018-03-06T21:15:36.051Z,86.68
2018-03-06T21:18:03.893Z,86.62
2018-03-06T21:20:31.711Z,86.93
2018-03-06T21:22:59.287Z,86.32
2018-03-06T21:25:27.010Z,86.13
2018-03-06T21:27:54.725Z,84.05
2018-03-06T21:30:22.441Z,84.29
2018-03-06T21:32:50.003Z,86.11
2018-03-06T21:35:17.562Z,86.53
2018-03-06T21:37:45.134Z,84.67
2018-03-06T21:40:12.710Z,84.85
2018-03-06T21:42:40.274Z,86.18
2018-03-06T21:45:07.906Z,86.47
2018-03-06T21:47:35.708Z,87.65
2018-03-06T21:50:03.292Z,87.80
2018-03-06T21:52:30.893Z,86.90
2018-03-06T21:54:58.661Z,84.21
2018-03-06T21:57:26.225Z,82.99
2018-03-06T21:59:53.801Z,83.03
2018-03-06T22:02:21.365Z,84.50
2018-03-06T22:04:49.094Z,88.03
2018-03-06T22:07:16.835Z,87.60
2018-03-06T22:09:44.398Z,85.83
2018-03-06T22:12:11.951Z,85.62
2018-03-06T22:14:39.705Z,86.96
2018-03-06T22:17:07.256Z,87.31
2018-03-06T22:19:34.813Z,88.34
2018-03-06T22:22:02.414Z,89.05
2018-03-06T22:24:30.152Z,88.32
2018-03-06T22:26:57.994Z,87.15
2018-03-06T22:29:25.566Z,89.10
2018-03-06T22:31:53.122Z,90.25
2018-03-06T22:34:20.685Z,89.46
2018-03-06T22:36:48.465Z,87.74
2018-03-06T22:39:16.026Z,87.96
2018-03-06T22:41:43.763Z,87.35
2018-03-06T22:44:11.331Z,87.14
2018-03-06T22:46:38.927Z,86.49
2018-03-06T22:49:06.478Z,84.91
2018-03-06T22:51:34.041Z,83.79
2018-03-06T22:54:01.790Z,83.86
2018-03-06T22:56:29.346Z,84.44
2018-03-06T22:58:56.917Z,83.25
2018-03-06T23:01:24.482Z,85.64
2018-03-06T23:03:52.261Z,81.69
2018-03-06T23:06:19.826Z,80.96
2018-03-06T23:08:47.568Z,79.83
2018-03-06T23:11:15.126Z,81.22
2018-03-06T23:13:42.703Z,80.29
2018-03-06T23:16:10.257Z,79.98
2018-03-06T23:18:37.822Z,79.63
2018-03-06T23:21:05.409Z,77.50
2018-03-06T23:23:33.203Z,77.39
2018-03-06T23:26:00.923Z,78.58
2018-03-06T23:28:28.740Z,78.77
2018-03-06T23:30:56.298Z,78.44
2018-03-06T23:33:24.076Z,79.22
2018-03-06T23:35:51.895Z,79.17
2018-03-06T23:38:19.503Z,79.05
2018-03-06T23:40:47.066Z,80.47
2018-03-06T23:43:14.632Z,80.17
2018-03-06T23:45:42.366Z,79.42
2018-03-06T23:48:10.087Z,79.53
2018-03-06T23:50:37.661Z,79.93
2018-03-06T23:53:05.223Z,80.08
2018-03-06T23:55:32.782Z,80.04
2018-03-06T23:58:00.358Z,80.39
